createdAt,value
2022-12-20T00:01:38.138Z,96.88
2022-12-20T00:04:41.622Z,96.84
2022-12-20T00:07:44.733Z,96.76
2022-12-20T00:10:49.285Z,96.71
2022-12-20T00:13:53.184Z,96.72
2022-12-20T00:16:57.035Z,96.69
2022-12-20T00:19:59.846Z,96.68
2022-12-20T00:23:03.819Z,96.54
2022-12-20T00:26:10.928Z,96.44
2022-12-20T00:29:13.948Z,96.26
2022-12-20T00:32:16.592Z,96.08
2022-12-20T00:35:20.308Z,96.00
2022-12-20T00:38:25.652Z,96.00
2022-12-20T00:41:33.501Z,95.81
2022-12-20T00:44:36.767Z,95.75
2022-12-20T00:47:39.718Z,95.61
2022-12-20T00:50:42.356Z,95.62
2022-12-20T00:53:46.352Z,95.53
2022-12-20T00:56:49.259Z,95.60
2022-12-20T00:59:52.023Z,95.51
2022-12-20T01:02:54.924Z,95.33
2022-12-20T01:06:03.107Z,95.26
2022-12-20T01:09:07.022Z,95.30
2022-12-20T01:12:09.831Z,95.28
2022-12-20T01:15:13.114Z,95.35
2022-12-20T01:18:16.708Z,95.33
2022-12-20T01:21:26.025Z,95.21
2022-12-20T01:24:29.765Z,95.17
2022-12-20T01:27:32.639Z,95.17
2022-12-20T01:30:40.823Z,95.22
2022-12-20T01:33:46.375Z,95.09
2022-12-20T01:36:49.660Z,95.09
2022-12-20T01:39:52.765Z,95.06
2022-12-20T01:42:56.634Z,95.00
2022-12-20T01:45:59.937Z,95.11
2022-12-20T01:49:12.077Z,95.04
2022-12-20T01:52:23.495Z,95.02
2022-12-20T01:55:28.715Z,95.02
2022-12-20T01:58:32.555Z,95.01
2022-12-20T02:01:36.108Z,95.10
2022-12-20T02:04:39.777Z,95.06
2022-12-20T02:07:46.084Z,95.00
2022-12-20T02:11:16.255Z,94.93
2022-12-20T02:14:49.275Z,94.97
2022-12-20T02:18:14.893Z,94.91
2022-12-20T02:21:20.913Z,94.89
2022-12-20T02:24:40.005Z,94.85
2022-12-20T02:28:22.049Z,94.81
2022-12-20T02:31:31.853Z,94.88
2022-12-20T02:34:38.269Z,94.91
2022-12-20T02:37:49.787Z,94.98
2022-12-20T02:40:59.430Z,94.98
2022-12-20T02:44:28.189Z,94.92
2022-12-20T02:47:36.470Z,95.01
2022-12-20T02:50:49.846Z,95.09
2022-12-20T02:53:53.316Z,94.94
2022-12-20T02:57:02.473Z,95.07
2022-12-20T03:00:18.811Z,95.11
2022-12-20T03:03:25.225Z,95.22
2022-12-20T03:06:28.136Z,95.22
2022-12-20T03:09:41.502Z,95.25
2022-12-20T03:12:44.500Z,95.20
2022-12-20T03:15:47.978Z,95.17
2022-12-20T03:18:51.367Z,94.96
2022-12-20T03:21:55.593Z,94.93
2022-12-20T03:24:58.108Z,94.97
2022-12-20T03:28:02.258Z,94.95
2022-12-20T03:31:05.551Z,94.83
2022-12-20T03:34:09.955Z,94.75
2022-12-20T03:37:13.539Z,94.58
2022-12-20T03:40:16.760Z,94.56
2022-12-20T03:43:20.733Z,94.59
2022-12-20T03:46:23.925Z,94.57
2022-12-20T03:49:27.386Z,94.66
2022-12-20T03:52:31.149Z,94.66
2022-12-20T03:55:33.810Z,94.76
2022-12-20T03:58:37.116Z,94.71
2022-12-20T04:01:40.970Z,94.73
2022-12-20T04:04:44.060Z,94.70
2022-12-20T04:07:46.970Z,94.81
2022-12-20T04:11:08.558Z,94.99
2022-12-20T04:14:11.792Z,95.04
2022-12-20T04:17:15.561Z,95.16
2022-12-20T04:20:20.017Z,95.33
2022-12-20T04:23:24.156Z,95.39
2022-12-20T04:26:27.201Z,95.52
2022-12-20T04:29:32.105Z,95.72
2022-12-20T04:32:35.015Z,95.77
2022-12-20T04:35:38.537Z,95.82
2022-12-20T04:38:41.617Z,95.80
2022-12-20T04:41:44.802Z,95.80
2022-12-20T04:44:51.304Z,95.81
2022-12-20T04:47:56.720Z,95.78
2022-12-20T04:51:00.794Z,95.69
2022-12-20T04:54:03.994Z,95.45
2022-12-20T04:57:09.979Z,95.35
2022-12-20T05:00:18.252Z,95.32
2022-12-20T05:03:23.245Z,95.03
2022-12-20T05:06:26.973Z,94.81
2022-12-20T05:09:29.853Z,94.58
2022-12-20T05:12:33.247Z,94.55
2022-12-20T05:15:37.868Z,94.54
2022-12-20T05:18:48.612Z,94.60
2022-12-20T05:22:12.220Z,94.60
2022-12-20T05:25:37.574Z,94.84
2022-12-20T05:28:45.231Z,94.90
2022-12-20T05:31:48.824Z,95.03
2022-12-20T05:34:52.084Z,95.01
2022-12-20T05:37:59.855Z,95.10
2022-12-20T05:41:06.781Z,95.10
2022-12-20T05:44:09.789Z,95.11
2022-12-20T05:47:13.383Z,95.00
2022-12-20T05:50:19.164Z,95.05
2022-12-20T05:53:38.666Z,94.93
2022-12-20T05:56:49.114Z,94.88
2022-12-20T05:59:58.199Z,94.83
2022-12-20T06:03:10.583Z,94.83
2022-12-20T06:06:15.413Z,94.79
2022-12-20T06:09:19.267Z,94.86
2022-12-20T06:12:24.334Z,94.82
2022-12-20T06:15:29.733Z,94.85
2022-12-20T06:18:35.631Z,94.78
2022-12-20T06:21:41.201Z,94.75
2022-12-20T06:24:48.576Z,94.78
2022-12-20T06:27:53.524Z,94.87
2022-12-20T06:30:59.091Z,94.87
2022-12-20T06:34:02.375Z,94.94
2022-12-20T06:37:06.469Z,95.01
2022-12-20T06:40:13.308Z,95.06
2022-12-20T06:43:17.096Z,94.89
2022-12-20T06:46:20.804Z,94.85
2022-12-20T06:49:26.114Z,94.59
2022-12-20T06:52:30.237Z,94.46
2022-12-20T06:55:34.735Z,94.14
2022-12-20T06:58:39.205Z,93.34
2022-12-20T07:01:45.166Z,92.57
2022-12-20T07:04:52.773Z,92.13
2022-12-20T07:07:56.122Z,91.67
2022-12-20T07:11:08.666Z,91.60
2022-12-20T07:14:11.922Z,91.49
2022-12-20T07:17:17.186Z,91.51
2022-12-20T07:20:22.584Z,91.57
2022-12-20T07:23:27.992Z,91.23
2022-12-20T07:26:36.867Z,91.06
2022-12-20T07:29:43.192Z,90.34
2022-12-20T07:32:49.203Z,89.72
2022-12-20T07:35:54.843Z,89.06
2022-12-20T07:38:58.525Z,87.13
2022-12-20T07:42:02.499Z,86.47
2022-12-20T07:45:17.562Z,85.62
2022-12-20T07:48:23.948Z,85.77
2022-12-20T07:51:36.762Z,86.47
2022-12-20T07:54:58.230Z,87.32
2022-12-20T07:58:07.379Z,87.33
2022-12-20T08:01:13.205Z,87.80
2022-12-20T08:04:21.771Z,87.50
2022-12-20T08:07:27.793Z,85.64
2022-12-20T08:10:31.463Z,85.23
2022-12-20T08:13:34.428Z,84.55
2022-12-20T08:16:37.356Z,83.93
2022-12-20T08:19:41.660Z,82.38
2022-12-20T08:22:48.414Z,80.81
2022-12-20T08:25:52.595Z,79.13
2022-12-20T08:28:56.807Z,79.32
2022-12-20T08:32:01.220Z,79.63
2022-12-20T08:35:07.215Z,80.74
2022-12-20T08:38:12.224Z,82.02
2022-12-20T08:41:16.859Z,82.27
2022-12-20T08:44:22.381Z,83.05
2022-12-20T08:47:27.407Z,82.36
2022-12-20T08:50:32.653Z,81.57
2022-12-20T08:53:44.191Z,81.52
2022-12-20T08:56:48.302Z,80.79
2022-12-20T08:59:51.848Z,79.62
2022-12-20T09:02:56.094Z,80.41
2022-12-20T09:06:05.665Z,80.35
2022-12-20T09:09:09.321Z,80.07
2022-12-20T09:12:17.204Z,79.89
2022-12-20T09:15:21.142Z,77.83
2022-12-20T09:18:25.131Z,75.90
2022-12-20T09:21:30.042Z,75.99
2022-12-20T09:24:33.191Z,75.43
2022-12-20T09:27:36.033Z,75.92
2022-12-20T09:30:41.892Z,74.91
2022-12-20T09:33:47.290Z,75.27
2022-12-20T09:36:51.748Z,75.16
2022-12-20T09:39:58.281Z,74.51
2022-12-20T09:43:02.174Z,73.85
2022-12-20T09:46:07.127Z,75.29
2022-12-20T09:49:19.357Z,75.30
2022-12-20T09:52:30.872Z,76.04
2022-12-20T09:56:03.698Z,76.06
2022-12-20T09:59:12.547Z,75.62
2022-12-20T10:05:54.184Z,75.89
2022-12-20T10:09:00.897Z,74.32
2022-12-20T10:12:15.836Z,74.28
2022-12-20T10:15:30.427Z,74.35
2022-12-20T10:19:14.118Z,73.91
2022-12-20T10:22:27.112Z,73.94
2022-12-20T10:25:35.298Z,74.20
2022-12-20T10:28:46.863Z,74.23
2022-12-20T10:32:01.001Z,75.04
2022-12-20T10:35:10.117Z,74.86
2022-12-20T10:38:27.069Z,75.32
2022-12-20T10:41:55.593Z,75.15
2022-12-20T10:45:00.466Z,75.97
2022-12-20T10:48:08.152Z,76.33
2022-12-20T10:51:16.449Z,75.38
2022-12-20T10:54:48.215Z,75.55
2022-12-20T10:57:54.405Z,76.07
2022-12-20T11:01:19.736Z,75.59
2022-12-20T11:04:35.181Z,75.19
2022-12-20T11:08:33.704Z,75.00
2022-12-20T11:11:25.014Z,74.12
2022-12-20T11:14:38.865Z,74.15
2022-12-20T11:17:56.068Z,74.68
2022-12-20T11:21:24.320Z,74.85
2022-12-20T11:25:01.189Z,75.05
2022-12-20T11:28:22.212Z,74.93
2022-12-20T11:31:37.410Z,75.26
2022-12-20T11:34:52.993Z,74.43
2022-12-20T11:38:17.186Z,74.36
2022-12-20T11:41:33.038Z,73.75
2022-12-20T11:45:09.617Z,73.58
2022-12-20T11:48:48.738Z,73.76
2022-12-20T11:52:14.995Z,72.61
2022-12-20T11:55:38.011Z,73.02
2022-12-20T11:59:02.587Z,72.52
2022-12-20T12:02:42.233Z,72.78
2022-12-20T12:06:06.260Z,71.83
2022-12-20T12:09:09.699Z,72.89
2022-12-20T12:12:33.048Z,73.32
2022-12-20T12:16:02.513Z,73.31
2022-12-20T12:19:11.688Z,74.01
2022-12-20T12:22:25.281Z,74.06
2022-12-20T12:25:28.651Z,74.06
2022-12-20T12:28:37.166Z,74.16
2022-12-20T12:31:51.339Z,73.68
2022-12-20T12:35:06.151Z,74.72
2022-12-20T12:38:44.494Z,73.82
2022-12-20T12:42:30.805Z,73.92
2022-12-20T12:45:44.400Z,72.96
2022-12-20T12:48:57.702Z,73.06
2022-12-20T12:52:05.621Z,73.52
2022-12-20T12:55:40.085Z,73.54
2022-12-20T12:59:08.164Z,73.60
2022-12-20T13:02:15.650Z,73.55
2022-12-20T13:05:32.780Z,73.89
2022-12-20T13:08:51.430Z,74.02
2022-12-20T13:12:01.458Z,73.65
2022-12-20T13:15:22.339Z,73.98
2022-12-20T13:18:29.199Z,73.96
2022-12-20T13:21:41.192Z,74.18
2022-12-20T13:24:48.465Z,74.37
2022-12-20T13:27:51.220Z,74.08
2022-12-20T13:31:01.644Z,74.51
2022-12-20T13:34:47.136Z,74.58
2022-12-20T13:38:26.131Z,74.65
2022-12-20T13:41:45.059Z,74.47
2022-12-20T13:44:56.103Z,74.29
2022-12-20T13:48:11.507Z,74.58
2022-12-20T13:51:18.840Z,74.89
2022-12-20T13:54:27.164Z,74.89
2022-12-20T13:57:46.718Z,75.12
2022-12-20T14:00:52.108Z,75.49
2022-12-20T14:04:06.163Z,76.12
2022-12-20T14:07:19.305Z,76.67
2022-12-20T14:10:33.109Z,76.84
2022-12-20T14:13:36.423Z,77.15
2022-12-20T14:16:42.214Z,77.31
2022-12-20T14:19:47.654Z,77.26
2022-12-20T14:23:04.689Z,77.46
2022-12-20T14:26:17.657Z,77.57
2022-12-20T14:29:35.092Z,77.61
2022-12-20T14:32:41.793Z,77.76
2022-12-20T14:35:50.120Z,77.94
2022-12-20T14:38:54.115Z,78.19
2022-12-20T14:42:20.352Z,78.60
2022-12-20T14:45:33.114Z,78.82
2022-12-20T14:48:36.909Z,79.13
2022-12-20T14:51:46.609Z,79.20
2022-12-20T14:55:10.383Z,79.48
2022-12-20T14:58:38.095Z,79.77
2022-12-20T15:01:45.332Z,80.23
2022-12-20T15:04:52.669Z,80.41
2022-12-20T15:07:56.012Z,80.50
2022-12-20T15:11:11.312Z,80.70
2022-12-20T15:14:37.184Z,80.76
2022-12-20T15:17:51.008Z,80.83
2022-12-20T15:21:09.025Z,81.14
2022-12-20T15:24:21.884Z,81.68
2022-12-20T15:27:27.095Z,81.55
2022-12-20T15:30:33.308Z,81.25
2022-12-20T15:33:47.124Z,80.95
2022-12-20T15:36:53.648Z,80.86
2022-12-20T15:40:03.145Z,81.10
2022-12-20T15:43:07.160Z,81.32
2022-12-20T15:46:32.136Z,81.26
2022-12-20T15:49:50.396Z,81.21
2022-12-20T15:53:03.099Z,81.19
2022-12-20T15:56:19.436Z,82.17
2022-12-20T16:03:02.212Z,84.12
2022-12-20T16:06:20.074Z,84.89
2022-12-20T16:09:27.791Z,85.40
2022-12-20T16:12:37.293Z,85.79
2022-12-20T16:15:55.105Z,86.08
2022-12-20T16:19:11.860Z,85.61
2022-12-20T16:22:28.964Z,86.58
2022-12-20T16:25:36.366Z,86.77
2022-12-20T16:28:39.870Z,86.80
2022-12-20T16:32:06.170Z,86.89
2022-12-20T16:35:38.294Z,87.04
2022-12-20T16:38:59.186Z,87.34
2022-12-20T16:42:24.101Z,87.32
2022-12-20T16:45:37.112Z,87.34
2022-12-20T16:48:55.260Z,87.61
2022-12-20T16:52:03.335Z,87.48
2022-12-20T16:55:18.115Z,87.64
2022-12-20T16:58:38.615Z,87.51
2022-12-20T17:01:47.880Z,87.55
2022-12-20T17:05:01.128Z,87.38
2022-12-20T17:11:37.608Z,87.39
2022-12-20T17:14:43.078Z,87.98
2022-12-20T17:17:55.439Z,88.09
2022-12-20T17:21:05.224Z,88.03
2022-12-20T17:24:18.749Z,88.31
2022-12-20T17:27:28.744Z,88.07
2022-12-20T17:30:40.082Z,88.06
2022-12-20T17:33:45.078Z,88.17
2022-12-20T17:36:56.054Z,87.74
2022-12-20T17:40:08.030Z,88.15
2022-12-20T17:43:22.933Z,87.95
2022-12-20T17:46:28.051Z,88.61
2022-12-20T17:49:34.056Z,88.63
2022-12-20T17:52:42.247Z,89.00
2022-12-20T17:55:49.035Z,89.24
2022-12-20T17:59:09.074Z,89.17
2022-12-20T18:02:24.204Z,89.30
2022-12-20T18:05:27.648Z,89.43
2022-12-20T18:08:35.142Z,89.44
2022-12-20T18:11:46.030Z,89.35
2022-12-20T18:14:50.776Z,89.45
2022-12-20T18:18:00.158Z,89.39
2022-12-20T18:21:17.107Z,89.75
2022-12-20T18:24:31.074Z,90.09
2022-12-20T18:27:46.311Z,90.08
2022-12-20T18:30:53.015Z,90.24
2022-12-20T18:33:59.514Z,90.44
2022-12-20T18:37:10.210Z,90.33
2022-12-20T18:40:21.431Z,90.54
2022-12-20T18:43:38.112Z,90.78
2022-12-20T18:46:41.759Z,90.85
2022-12-20T18:49:45.095Z,90.71
2022-12-20T18:52:59.503Z,90.46
2022-12-20T18:56:10.135Z,90.40
2022-12-20T18:59:27.100Z,90.28
2022-12-20T19:02:32.380Z,90.63
2022-12-20T19:05:36.754Z,90.70
2022-12-20T19:08:43.908Z,90.79
2022-12-20T19:11:56.992Z,90.87
2022-12-20T19:15:04.268Z,91.04
2022-12-20T19:18:12.435Z,91.13
2022-12-20T19:21:24.167Z,91.26
2022-12-20T19:24:27.606Z,91.27
2022-12-20T19:27:44.497Z,90.92
2022-12-20T19:30:51.497Z,91.09
2022-12-20T19:34:06.103Z,91.02
2022-12-20T19:37:20.052Z,91.08
2022-12-20T19:40:31.969Z,90.99
2022-12-20T19:43:39.106Z,90.95
2022-12-20T19:46:47.738Z,90.59
2022-12-20T19:49:52.941Z,90.56
2022-12-20T19:53:01.259Z,90.72
2022-12-20T19:56:14.083Z,90.72
2022-12-20T19:59:21.414Z,90.74
2022-12-20T20:02:27.071Z,90.83
2022-12-20T20:05:30.739Z,91.10
2022-12-20T20:08:42.976Z,91.12
2022-12-20T20:11:48.248Z,90.97
2022-12-20T20:14:54.309Z,91.21
2022-12-20T20:18:00.058Z,91.19
2022-12-20T20:21:21.116Z,91.21
2022-12-20T20:24:29.066Z,91.40
2022-12-20T20:27:34.051Z,91.69
2022-12-20T20:30:44.834Z,91.95
2022-12-20T20:33:48.607Z,92.05
2022-12-20T20:36:54.081Z,91.94
2022-12-20T20:39:59.539Z,92.22
2022-12-20T20:43:09.153Z,92.20
2022-12-20T20:46:20.285Z,92.42
2022-12-20T20:49:23.775Z,92.64
2022-12-20T20:52:28.365Z,92.40
2022-12-20T20:55:33.034Z,92.40
2022-12-20T20:58:42.319Z,92.60
2022-12-20T21:01:48.230Z,92.76
2022-12-20T21:05:47.174Z,92.77
2022-12-20T21:08:22.045Z,92.76
2022-12-20T21:11:26.313Z,92.67
2022-12-20T21:15:10.691Z,92.71
2022-12-20T21:17:55.686Z,92.89
2022-12-20T21:21:01.151Z,92.93
2022-12-20T21:24:04.763Z,92.95
2022-12-20T21:27:20.967Z,92.90
2022-12-20T21:30:31.616Z,92.98
2022-12-20T21:33:40.041Z,92.90
2022-12-20T21:36:47.982Z,92.92
2022-12-20T21:39:51.540Z,92.84
2022-12-20T21:42:55.661Z,92.76
2022-12-20T21:46:00.036Z,92.91
2022-12-20T21:49:09.159Z,92.87
2022-12-20T21:52:12.523Z,92.81
2022-12-20T21:55:15.064Z,93.05
2022-12-20T21:58:20.981Z,92.98
2022-12-20T22:01:27.161Z,93.03
2022-12-20T22:04:30.790Z,92.83
2022-12-20T22:07:38.514Z,92.84
2022-12-20T22:10:44.445Z,92.76
2022-12-20T22:13:47.666Z,92.70
2022-12-20T22:16:51.412Z,92.52
2022-12-20T22:19:57.921Z,92.55
2022-12-20T22:23:02.534Z,92.45
2022-12-20T22:26:07.629Z,92.12
2022-12-20T22:29:11.748Z,92.58
2022-12-20T22:32:24.916Z,92.29
2022-12-20T22:35:29.962Z,92.17
2022-12-20T22:38:34.184Z,92.13
2022-12-20T22:41:37.409Z,92.08
2022-12-20T22:44:42.326Z,92.20
2022-12-20T22:47:46.977Z,92.06
2022-12-20T22:50:49.707Z,92.09
2022-12-20T22:53:53.773Z,92.03
2022-12-20T22:56:56.569Z,91.86
2022-12-20T23:00:03.212Z,91.55
2022-12-20T23:03:09.324Z,91.63
2022-12-20T23:06:17.935Z,91.57
2022-12-20T23:09:20.910Z,91.46
2022-12-20T23:12:44.744Z,91.52
2022-12-20T23:15:49.602Z,91.35
2022-12-20T23:19:01.569Z,91.10
2022-12-20T23:22:22.983Z,91.00
2022-12-20T23:25:33.019Z,90.95
2022-12-20T23:28:35.579Z,90.71
2022-12-20T23:31:39.005Z,90.44
2022-12-20T23:34:42.102Z,90.26
2022-12-20T23:37:46.363Z,90.05
2022-12-20T23:40:50.202Z,89.95
2022-12-20T23:43:53.091Z,89.80
2022-12-20T23:46:57.300Z,89.98
2022-12-20T23:50:00.047Z,89.87
2022-12-20T23:53:04.662Z,89.85
2022-12-20T23:56:22.233Z,89.79
2022-12-20T23:59:25.648Z,89.73
